Time;durP1;ratioP1;P1;durP2;ratioP2;P2;SDS_P1;SDS_P2;PMS_P1;PMS_P2;Temp;Humidity;BMP_temperature;BMP_pressure;BME280_temperature;BME280_humidity;BME280_pressure;Samples;Min_cycle;Max_cycle;Signal;HPM_P1;HPM_P2
2022/08/11 00:00:42;;;;;;;5.10;2.75;;;;;;;;;;2063883;28;20030;-87
2022/08/11 00:01:48;;;;;;;3.40;3.10;;;;;;;;;;2066094;28;20102;-88
2022/08/11 00:02:51;;;;;;;3.65;3.03;;;;;;;;;;2072062;28;20026;-87
2022/08/11 00:03:57;;;;;;;9.70;3.22;;;;;;;;;;2062785;28;20113;-86
2022/08/11 00:05:06;;;;;;;3.60;3.08;;;;;;;;;;2063795;28;20061;-88
2022/08/11 00:06:07;;;;;;;4.03;3.33;;;;;;;;;;2064817;28;20022;-87
2022/08/11 00:07:08;;;;;;;4.63;3.80;;;;;;;;;;2063528;28;20465;-87
2022/08/11 00:08:10;;;;;;;4.15;3.30;;;;;;;;;;2063415;28;20037;-87
2022/08/11 00:09:15;;;;;;;4.65;3.17;;;;;;;;;;2063576;28;20046;-87
2022/08/11 00:10:20;;;;;;;4.72;3.38;;;;;;;;;;2063435;28;20030;-87
2022/08/11 00:11:31;;;;;;;4.15;3.47;;;;;;;;;;2055324;28;20038;-86
2022/08/11 00:12:31;;;;;;;3.95;3.35;;;;;;;;;;2056681;28;20038;-86
2022/08/11 00:13:40;;;;;;;3.85;3.00;;;;;;;;;;2054941;28;20058;-87
2022/08/11 00:14:43;;;;;;;4.40;3.30;;;;;;;;;;2056010;28;20034;-86
2022/08/11 00:15:44;;;;;;;4.50;3.38;;;;;;;;;;2054990;28;20069;-87
2022/08/11 00:17:01;;;;;;;4.55;3.95;;;;;;;;;;2054981;28;20039;-86
2022/08/11 00:18:02;;;;;;;4.50;2.90;;;;;;;;;;2054640;28;20062;-86
2022/08/11 00:19:03;;;;;;;3.92;3.00;;;;;;;;;;2055047;28;20394;-88
2022/08/11 00:20:07;;;;;;;3.88;3.05;;;;;;;;;;2064579;28;20030;-87
2022/08/11 00:21:10;;;;;;;6.10;3.55;;;;;;;;;;2047436;29;20046;-87
2022/08/11 00:22:11;;;;;;;6.72;3.55;;;;;;;;;;2047648;28;20171;-87
2022/08/11 00:23:15;;;;;;;4.90;3.17;;;;;;;;;;2055429;28;20034;-87
2022/08/11 00:24:17;;;;;;;3.42;3.13;;;;;;;;;;2055605;28;20658;-87
2022/08/11 00:25:19;;;;;;;5.25;3.00;;;;;;;;;;2055290;28;20042;-87
2022/08/11 00:26:22;;;;;;;5.18;3.63;;;;;;;;;;2055607;28;20026;-88
2022/08/11 00:27:33;;;;;;;5.07;3.03;;;;;;;;;;2046857;29;20402;-87
2022/08/11 00:28:35;;;;;;;4.95;3.65;;;;;;;;;;2048416;28;20027;-88
2022/08/11 00:29:35;;;;;;;4.93;3.55;;;;;;;;;;2055356;28;20027;-88
2022/08/11 00:30:39;;;;;;;4.20;3.15;;;;;;;;;;2046690;29;20035;-88
2022/08/11 00:31:52;;;;;;;3.40;3.05;;;;;;;;;;2048861;28;20126;-87
2022/08/11 00:32:57;;;;;;;3.88;3.53;;;;;;;;;;2055949;28;20079;-87
2022/08/11 00:33:59;;;;;;;4.97;3.83;;;;;;;;;;2055710;28;20027;-87
2022/08/11 00:35:02;;;;;;;5.53;3.55;;;;;;;;;;2046949;28;20090;-87
2022/08/11 00:36:04;;;;;;;5.32;3.45;;;;;;;;;;2048179;28;20505;-87
2022/08/11 00:37:09;;;;;;;4.20;3.42;;;;;;;;;;2048117;29;20039;-89
2022/08/11 00:38:10;;;;;;;3.92;3.22;;;;;;;;;;2048897;28;20156;-88
2022/08/11 00:39:12;;;;;;;3.72;2.85;;;;;;;;;;2056675;28;20042;-86
2022/08/11 00:40:24;;;;;;;3.80;3.42;;;;;;;;;;2056876;28;20085;-87
2022/08/11 00:41:57;;;;;;;3.40;3.03;;;;;;;;;;2056771;28;20470;-87
2022/08/11 00:43:31;;;;;;;6.55;3.47;;;;;;;;;;2056843;28;20034;-87
2022/08/11 00:44:52;;;;;;;5.07;3.53;;;;;;;;;;2056858;28;20031;-87
2022/08/11 00:46:18;;;;;;;4.55;3.50;;;;;;;;;;2056875;28;20113;-86
2022/08/11 00:47:30;;;;;;;4.28;3.85;;;;;;;;;;1703649;29;10001200;-87
2022/08/11 00:48:40;;;;;;;4.30;3.20;;;;;;;;;;2049791;28;20039;-87
2022/08/11 00:49:45;;;;;;;3.95;3.28;;;;;;;;;;2048162;29;20023;-87
2022/08/11 00:51:05;;;;;;;5.97;3.88;;;;;;;;;;2053516;28;20035;-86
2022/08/11 00:52:24;;;;;;;4.07;3.58;;;;;;;;;;2056684;28;20035;-87
2022/08/11 00:53:43;;;;;;;5.20;4.15;;;;;;;;;;2048159;29;20054;-87
2022/08/11 00:55:14;;;;;;;5.05;3.72;;;;;;;;;;2042595;29;20039;-87
2022/08/11 00:56:26;;;;;;;5.35;3.90;;;;;;;;;;2052300;28;20401;-87
2022/08/11 00:57:55;;;;;;;4.28;3.55;;;;;;;;;;2048030;29;20050;-87
2022/08/11 00:59:13;;;;;;;4.90;3.50;;;;;;;;;;2042999;28;20046;-87
2022/08/11 01:00:15;;;;;;;4.00;3.60;;;;;;;;;;2047981;29;20035;-87
2022/08/11 01:01:15;;;;;;;5.72;4.18;;;;;;;;;;2048251;28;20046;-87
2022/08/11 01:02:18;;;;;;;6.68;4.78;;;;;;;;;;2047903;29;20123;-86
2022/08/11 01:03:18;;;;;;;4.30;3.90;;;;;;;;;;2048450;28;20063;-87
2022/08/11 01:04:48;;;;;;;4.05;3.40;;;;;;;;;;2056582;28;20465;-87
2022/08/11 01:06:19;;;;;;;8.15;4.05;;;;;;;;;;2056730;28;20065;-86
2022/08/11 01:07:35;;;;;;;5.80;4.20;;;;;;;;;;2056726;28;20030;-87
2022/08/11 01:09:11;;;;;;;6.68;4.50;;;;;;;;;;2056670;28;20031;-87
2022/08/11 01:10:42;;;;;;;5.07;4.13;;;;;;;;;;2056828;28;20074;-86
2022/08/11 01:12:18;;;;;;;6.55;3.65;;;;;;;;;;2047939;29;20114;-87
2022/08/11 01:13:49;;;;;;;5.50;4.03;;;;;;;;;;2052930;28;20063;-86
2022/08/11 01:15:11;;;;;;;5.97;4.20;;;;;;;;;;2056840;28;20050;-86
2022/08/11 01:16:48;;;;;;;4.68;4.25;;;;;;;;;;2056611;28;20034;-87
2022/08/11 01:18:28;;;;;;;5.07;4.10;;;;;;;;;;2056579;28;20266;-87
2022/08/11 01:19:31;;;;;;;5.55;4.07;;;;;;;;;;2056383;28;20027;-86
2022/08/11 01:20:59;;;;;;;5.85;4.45;;;;;;;;;;2051701;28;20083;-86
2022/08/11 01:22:18;;;;;;;6.22;4.25;;;;;;;;;;2056495;28;20022;-86
2022/08/11 01:23:40;;;;;;;6.13;3.95;;;;;;;;;;2047823;29;20034;-87
2022/08/11 01:24:59;;;;;;;5.15;3.83;;;;;;;;;;2051029;28;20833;-87
2022/08/11 01:26:11;;;;;;;5.32;3.78;;;;;;;;;;2056471;28;20126;-87
2022/08/11 01:27:40;;;;;;;4.30;3.80;;;;;;;;;;2058958;28;20035;-87
2022/08/11 01:29:02;;;;;;;5.15;4.05;;;;;;;;;;2064736;28;20084;-87
2022/08/11 01:30:38;;;;;;;6.32;3.97;;;;;;;;;;2064424;28;20065;-87
2022/08/11 01:31:53;;;;;;;4.68;3.88;;;;;;;;;;2055597;28;20461;-87
2022/08/11 01:33:18;;;;;;;6.32;4.10;;;;;;;;;;2057810;28;20086;-87
2022/08/11 01:34:50;;;;;;;5.30;3.90;;;;;;;;;;2055956;28;20030;-87
2022/08/11 01:36:19;;;;;;;5.45;3.90;;;;;;;;;;2060113;28;20026;-87
2022/08/11 01:37:41;;;;;;;7.13;3.60;;;;;;;;;;2055795;28;20038;-86
2022/08/11 01:39:16;;;;;;;6.00;3.67;;;;;;;;;;2050450;28;20035;-86
2022/08/11 01:40:35;;;;;;;4.80;4.30;;;;;;;;;;1705728;28;10218093;-87
2022/08/11 01:45:17;;;;;;;10.55;4.60;;;;;;;;;;2067181;28;20410;-86
2022/08/11 01:46:25;;;;;;;5.72;4.30;;;;;;;;;;2064164;28;20030;-87
2022/08/11 01:47:50;;;;;;;4.47;3.67;;;;;;;;;;2055499;28;20030;-87
2022/08/11 01:49:08;;;;;;;7.82;4.20;;;;;;;;;;2050775;28;20066;-87
2022/08/11 01:50:38;;;;;;;6.65;4.13;;;;;;;;;;2057827;28;20457;-87
2022/08/11 01:52:01;;;;;;;6.20;4.10;;;;;;;;;;2050778;28;20054;-87
2022/08/11 01:53:17;;;;;;;7.90;4.30;;;;;;;;;;1703130;28;10364789;-87
2022/08/11 01:54:27;;;;;;;7.85;4.03;;;;;;;;;;2060625;28;20021;-87
2022/08/11 01:55:37;;;;;;;4.57;4.10;;;;;;;;;;2056228;28;20045;-86
2022/08/11 01:56:48;;;;;;;6.25;4.03;;;;;;;;;;2056312;28;20907;-87
2022/08/11 01:58:11;;;;;;;5.90;4.41;;;;;;;;;;2053683;28;10001186;-87
2022/08/11 01:59:28;;;;;;;4.72;3.90;;;;;;;;;;1704295;28;10255215;-86
2022/08/11 02:00:31;;;;;;;6.38;3.75;;;;;;;;;;2056262;28;20089;-86
2022/08/11 02:01:57;;;;;;;7.32;4.22;;;;;;;;;;2047562;29;20023;-86
2022/08/11 02:03:09;;;;;;;5.45;3.88;;;;;;;;;;1709312;28;10003114;-86
2022/08/11 02:04:28;;;;;;;6.10;3.90;;;;;;;;;;2047592;29;20119;-86
2022/08/11 02:05:59;;;;;;;6.57;4.10;;;;;;;;;;2047322;29;20070;-86
2022/08/11 02:07:03;;;;;;;;;;;;;;;;;;2052105;28;20512;-87
2022/08/11 02:08:09;;;;;;;5.17;3.43;;;;;;;;;;1703783;28;10269088;-86
2022/08/11 02:09:16;;;;;;;4.82;3.70;;;;;;;;;;2056164;28;20405;-86
2022/08/11 02:12:00;;;;;;;4.65;3.72;;;;;;;;;;2056303;28;20038;-86
2022/08/11 02:13:17;;;;;;;4.80;3.90;;;;;;;;;;2047331;29;20049;-86
2022/08/11 02:14:23;;;;;;;4.93;3.45;;;;;;;;;;2049683;28;20117;-85
2022/08/11 02:15:37;;;;;;;4.35;3.95;;;;;;;;;;2055769;28;20037;-86
2022/08/11 02:16:52;;;;;;;5.40;4.05;;;;;;;;;;2047660;29;20019;-86
2022/08/11 02:18:04;;;;;;;7.93;3.88;;;;;;;;;;2049400;28;20127;-86
2022/08/11 02:24:23;;;;;;;6.22;3.71;;;;;;;;;;2011315;28;10264755;-86
2022/08/11 02:25:36;;;;;;;5.90;3.63;;;;;;;;;;2063918;28;20285;-86
2022/08/11 02:26:43;;;;;;;4.00;3.17;;;;;;;;;;2063968;28;20080;-86
2022/08/11 02:27:55;;;;;;;4.05;3.40;;;;;;;;;;2063863;28;20021;-86
2022/08/11 02:29:21;;;;;;;5.38;3.72;;;;;;;;;;2064085;28;20031;-86
2022/08/11 02:30:31;;;;;;;4.35;3.20;;;;;;;;;;2063751;28;20014;-86
2022/08/11 02:33:23;;;;;;;4.88;3.25;;;;;;;;;;1719924;28;10001931;-86
2022/08/11 02:34:48;;;;;;;4.47;3.35;;;;;;;;;;2063328;28;20239;-86
2022/08/11 02:36:07;;;;;;;8.32;3.72;;;;;;;;;;2064518;28;20036;-86
2022/08/11 02:37:27;;;;;;;6.53;3.78;;;;;;;;;;2055743;28;20031;-86
2022/08/11 02:38:50;;;;;;;4.80;3.17;;;;;;;;;;2059876;28;20023;-88
2022/08/11 02:39:56;;;;;;;4.05;3.47;;;;;;;;;;2064354;28;20041;-86
2022/08/11 02:42:21;;;;;;;3.75;3.10;;;;;;;;;;2063918;28;20387;-86
2022/08/11 02:42:44;;;;;;;3.20;2.85;;;;;;;;;;2063852;28;20030;-87
2022/08/11 02:44:17;;;;;;;4.22;3.20;;;;;;;;;;2063944;28;20030;-86
2022/08/11 02:45:39;;;;;;;3.97;3.30;;;;;;;;;;2064110;28;20022;-86
2022/08/11 02:47:08;;;;;;;4.82;2.97;;;;;;;;;;2064156;28;20023;-86
2022/08/11 02:49:58;;;;;;;3.55;2.80;;;;;;;;;;2072013;28;20483;-86
2022/08/11 02:51:13;;;;;;;;;;;;;;;;;;2058888;28;20030;-88
2022/08/11 02:52:13;;;;;;;4.28;2.95;;;;;;;;;;2056679;28;20416;-87
2022/08/11 02:53:29;;;;;;;4.18;3.00;;;;;;;;;;2055809;28;20030;-87
2022/08/11 02:55:05;;;;;;;5.90;3.03;;;;;;;;;;2055784;28;20077;-88
2022/08/11 02:56:15;;;;;;;3.17;2.70;;;;;;;;;;2055904;28;20553;-87
2022/08/11 02:57:26;;;;;;;3.53;3.03;;;;;;;;;;2047014;29;20027;-87
2022/08/11 02:58:34;;;;;;;3.55;2.72;;;;;;;;;;2040156;29;20016;-87
2022/08/11 02:59:51;;;;;;;8.40;4.68;;;;;;;;;;2039985;29;20039;-87
2022/08/11 03:01:03;;;;;;;7.72;2.97;;;;;;;;;;2053381;28;20162;-87
2022/08/11 03:02:14;;;;;;;4.25;3.13;;;;;;;;;;2053368;29;20126;-87
2022/08/11 03:03:44;;;;;;;4.78;3.05;;;;;;;;;;2046001;29;20495;-87
2022/08/11 03:04:59;;;;;;;4.00;3.33;;;;;;;;;;2026943;29;20028;-87
2022/08/11 03:06:21;;;;;;;5.72;3.00;;;;;;;;;;2034016;28;20032;-88
2022/08/11 03:07:56;;;;;;;3.67;2.97;;;;;;;;;;2055381;28;20045;-87
2022/08/11 03:08:59;;;;;;;3.58;3.00;;;;;;;;;;2055589;28;20097;-86
2022/08/11 03:10:20;;;;;;;4.65;3.03;;;;;;;;;;2055537;28;20480;-88
2022/08/11 03:18:05;;;;;;;3.92;3.22;;;;;;;;;;2055590;28;20026;-87
2022/08/11 03:19:17;;;;;;;4.43;3.40;;;;;;;;;;2046743;29;20031;-88
2022/08/11 03:20:45;;;;;;;4.95;3.33;;;;;;;;;;2048464;28;20380;-88
2022/08/11 03:21:58;;;;;;;4.47;3.40;;;;;;;;;;2054826;28;20051;-88
2022/08/11 03:23:14;;;;;;;5.85;3.20;;;;;;;;;;2046919;29;20027;-88
2022/08/11 03:24:23;;;;;;;4.70;2.58;;;;;;;;;;2049042;28;20111;-88
2022/08/11 03:25:38;;;;;;;3.47;2.90;;;;;;;;;;2055491;28;20078;-88
2022/08/11 03:27:00;;;;;;;4.93;3.00;;;;;;;;;;2055858;28;20054;-87
2022/08/11 03:28:07;;;;;;;3.83;2.92;;;;;;;;;;2047231;29;20066;-87
2022/08/11 03:29:22;;;;;;;3.53;3.20;;;;;;;;;;2047858;28;20031;-88
2022/08/11 03:30:55;;;;;;;4.57;3.13;;;;;;;;;;2054807;28;20088;-87
2022/08/11 03:32:05;;;;;;;3.83;3.20;;;;;;;;;;2046923;29;20027;-87
2022/08/11 03:34:36;;;;;;;6.75;4.47;;;;;;;;;;2055461;28;20493;-87
2022/08/11 03:35:44;;;;;;;4.53;3.10;;;;;;;;;;2054781;28;20026;-87
2022/08/11 03:37:05;;;;;;;4.53;3.20;;;;;;;;;;2055169;28;20041;-87
2022/08/11 03:38:11;;;;;;;3.83;3.35;;;;;;;;;;2031096;28;20106;-87
2022/08/11 03:39:28;;;;;;;3.42;3.13;;;;;;;;;;2046759;29;20168;-86
2022/08/11 03:42:34;;;;;;;5.78;3.95;;;;;;;;;;1712884;28;10002273;-87
2022/08/11 03:44:00;;;;;;;5.93;3.42;;;;;;;;;;2046573;29;20031;-88
2022/08/11 03:45:28;;;;;;;6.32;3.50;;;;;;;;;;2050248;28;20045;-87
2022/08/11 03:46:38;;;;;;;5.90;3.30;;;;;;;;;;2022751;29;20032;-88
2022/08/11 03:47:57;;;;;;;4.55;3.35;;;;;;;;;;2038076;29;20102;-88
2022/08/11 03:49:28;;;;;;;3.88;3.30;;;;;;;;;;2049638;28;20027;-88
2022/08/11 03:50:35;;;;;;;;;;;;;;;;;;2050478;28;20031;-87
2022/08/11 03:52:00;;;;;;;5.38;3.72;;;;;;;;;;2046505;28;20359;-87
2022/08/11 03:53:26;;;;;;;6.05;3.55;;;;;;;;;;2050258;28;20529;-88
2022/08/11 03:54:42;;;;;;;5.72;3.20;;;;;;;;;;2046710;29;20042;-87
2022/08/11 03:56:07;;;;;;;7.00;3.88;;;;;;;;;;2048674;28;20028;-87
2022/08/11 03:57:17;;;;;;;6.80;3.95;;;;;;;;;;2055369;28;20026;-87
2022/08/11 03:58:35;;;;;;;4.32;3.60;;;;;;;;;;2055364;28;20483;-87
2022/08/11 03:59:50;;;;;;;4.40;3.03;;;;;;;;;;2055360;28;20027;-87
2022/08/11 04:01:16;;;;;;;4.30;3.08;;;;;;;;;;2055263;28;20054;-87
2022/08/11 04:02:30;;;;;;;3.95;3.22;;;;;;;;;;2046751;29;20554;-87
2022/08/11 04:03:59;;;;;;;6.28;3.63;;;;;;;;;;2051212;28;20482;-87
2022/08/11 04:05:26;;;;;;;9.65;3.90;;;;;;;;;;2046522;29;20101;-87
2022/08/11 04:06:41;;;;;;;5.57;4.40;;;;;;;;;;2041933;29;20439;-87
2022/08/11 04:08:03;;;;;;;5.18;4.07;;;;;;;;;;2048591;28;20110;-87
2022/08/11 04:09:45;;;;;;;6.80;4.40;;;;;;;;;;2064032;28;20030;-87
2022/08/11 04:11:18;;;;;;;5.70;4.45;;;;;;;;;;2063979;28;20042;-87
2022/08/11 04:12:42;;;;;;;5.47;3.55;;;;;;;;;;2060538;28;20049;-88
2022/08/11 04:16:24;;;;;;;8.10;3.72;;;;;;;;;;2055608;28;20097;-88
2022/08/11 04:17:49;;;;;;;5.80;4.80;;;;;;;;;;2062834;28;20221;-88
2022/08/11 04:19:09;;;;;;;6.00;4.13;;;;;;;;;;2067752;28;20037;-88
2022/08/11 04:20:34;;;;;;;4.03;3.30;;;;;;;;;;2061847;28;20035;-87
2022/08/11 04:22:09;;;;;;;5.20;3.65;;;;;;;;;;2051484;28;20023;-88
2022/08/11 04:23:39;;;;;;;6.22;3.53;;;;;;;;;;1987152;29;20260;-88
2022/08/11 04:25:09;;;;;;;6.65;3.40;;;;;;;;;;2032002;29;20024;-89
2022/08/11 04:26:36;;;;;;;3.97;3.40;;;;;;;;;;2040794;29;20499;-87
2022/08/11 04:28:04;;;;;;;4.55;3.38;;;;;;;;;;1690754;29;10280716;-88
2022/08/11 04:29:24;;;;;;;5.13;3.88;;;;;;;;;;2031964;29;20032;-87
2022/08/11 04:30:48;;;;;;;6.45;3.85;;;;;;;;;;2035101;29;20107;-88
2022/08/11 04:31:51;;;;;;;6.40;4.10;;;;;;;;;;2040614;29;20039;-88
2022/08/11 04:33:09;;;;;;;3.40;3.10;;;;;;;;;;2032231;29;20040;-88
2022/08/11 04:34:43;;;;;;;4.78;3.38;;;;;;;;;;2026728;29;20029;-87
2022/08/11 04:36:05;;;;;;;8.63;3.38;;;;;;;;;;2028789;29;20511;-87
2022/08/11 04:37:33;;;;;;;5.20;3.00;;;;;;;;;;2031406;29;20063;-87
2022/08/11 04:38:58;;;;;;;4.95;3.05;;;;;;;;;;2035771;29;20028;-87
2022/08/11 04:40:18;;;;;;;2.80;2.53;;;;;;;;;;2043208;29;20106;-87
2022/08/11 04:41:25;;;;;;;5.65;3.38;;;;;;;;;;2040045;29;20207;-87
2022/08/11 04:44:39;;;;;;;4.05;3.00;;;;;;;;;;2051135;28;20039;-87
2022/08/11 04:46:17;;;;;;;5.55;2.67;;;;;;;;;;2048451;29;20035;-88
2022/08/11 05:01:40;;;;;;;4.03;2.30;;;;;;;;;;2048389;29;20057;-88
2022/08/11 05:03:02;;;;;;;3.47;2.40;;;;;;;;;;2048501;29;20027;-87
2022/08/11 05:05:29;;;;;;;6.13;3.47;;;;;;;;;;1700438;29;10001789;-88
2022/08/11 05:05:51;;;;;;;4.40;3.13;;;;;;;;;;2051530;28;20034;-87
2022/08/11 05:07:05;;;;;;;3.65;2.10;;;;;;;;;;2047702;29;20126;-88
2022/08/11 05:08:25;;;;;;;4.97;2.63;;;;;;;;;;2052706;28;20024;-87
2022/08/11 05:09:44;;;;;;;3.88;2.25;;;;;;;;;;2056522;28;20430;-88
2022/08/11 05:11:06;;;;;;;3.03;2.05;;;;;;;;;;2047859;29;20419;-88
2022/08/11 05:12:19;;;;;;;4.03;2.45;;;;;;;;;;2050849;28;20051;-87
2022/08/11 05:35:44;;;;;;;3.05;2.03;;;;;;;;;;2049142;29;20027;-93
2022/08/11 05:36:49;;;;;;;2.63;2.10;;;;;;;;;;2040782;29;20019;-92
2022/08/11 05:57:01;;;;;;;3.75;2.50;;;;;;;;;;2043586;29;20027;-91
2022/08/11 05:58:04;;;;;;;2.33;1.85;;;;;;;;;;2044903;28;20032;-91
2022/08/11 05:59:12;;;;;;;5.55;2.20;;;;;;;;;;2038252;29;20573;-91
2022/08/11 06:00:13;;;;;;;4.57;2.05;;;;;;;;;;2039739;29;20070;-91
2022/08/11 06:01:23;;;;;;;3.45;2.33;;;;;;;;;;2035220;29;20042;-92
2022/08/11 06:02:25;;;;;;;1.88;1.77;;;;;;;;;;2031513;29;20118;-92
2022/08/11 06:03:31;;;;;;;3.63;1.70;;;;;;;;;;2039163;29;20039;-92
2022/08/11 06:04:32;;;;;;;2.85;1.90;;;;;;;;;;2032956;29;20032;-92
2022/08/11 06:05:34;;;;;;;3.38;2.25;;;;;;;;;;2039372;29;20032;-92
2022/08/11 06:06:35;;;;;;;2.50;1.77;;;;;;;;;;2047714;29;20038;-93
2022/08/11 06:07:37;;;;;;;2.67;1.80;;;;;;;;;;2039935;29;20024;-92
2022/08/11 06:08:38;;;;;;;7.10;6.40;;;;;;;;;;2032415;29;20051;-94
2022/08/11 06:09:49;;;;;;;2.65;1.92;;;;;;;;;;2032580;29;20055;-93
2022/08/11 06:10:50;;;;;;;1.73;1.48;;;;;;;;;;2031915;29;20060;-92
2022/08/11 06:11:52;;;;;;;3.70;1.55;;;;;;;;;;2039964;29;20042;-93
2022/08/11 06:12:54;;;;;;;4.60;1.90;;;;;;;;;;2049054;29;20034;-92
2022/08/11 06:13:56;;;;;;;2.47;1.83;;;;;;;;;;2039712;29;20032;-93
2022/08/11 06:15:01;;;;;;;2.05;1.63;;;;;;;;;;2032581;29;20157;-93
2022/08/11 06:16:02;;;;;;;2.30;1.40;;;;;;;;;;2033371;29;20127;-92
2022/08/11 06:17:04;;;;;;;2.53;1.52;;;;;;;;;;2032581;29;20032;-92
2022/08/11 06:18:10;;;;;;;1.95;1.70;;;;;;;;;;2033081;29;20036;-92
2022/08/11 06:19:11;;;;;;;3.00;1.58;;;;;;;;;;2043577;28;20035;-92
2022/08/11 06:20:14;;;;;;;2.45;1.50;;;;;;;;;;2040342;29;20155;-92
2022/08/11 06:21:16;;;;;;;1.92;1.50;;;;;;;;;;2040214;29;20028;-92
2022/08/11 06:22:20;;;;;;;2.75;1.50;;;;;;;;;;2031720;29;20091;-91
2022/08/11 06:23:29;;;;;;;4.68;1.90;;;;;;;;;;2040047;29;20031;-92
2022/08/11 06:24:31;;;;;;;1.73;1.45;;;;;;;;;;2030898;29;20039;-92
2022/08/11 06:25:34;;;;;;;3.15;1.60;;;;;;;;;;2024229;29;20131;-93
2022/08/11 06:26:35;;;;;;;1.80;1.45;;;;;;;;;;2032723;29;20028;-93
2022/08/11 06:27:37;;;;;;;6.18;1.83;;;;;;;;;;2032037;29;20028;-93
2022/08/11 06:28:39;;;;;;;1.98;1.30;;;;;;;;;;2032320;29;20113;-92
2022/08/11 06:29:49;;;;;;;1.60;1.40;;;;;;;;;;2032223;29;20110;-93
2022/08/11 06:30:49;;;;;;;2.50;1.67;;;;;;;;;;2032182;29;20091;-93
2022/08/11 06:31:57;;;;;;;1.45;1.20;;;;;;;;;;2027735;29;20036;-92
2022/08/11 06:33:00;;;;;;;1.67;1.25;;;;;;;;;;2032568;29;20462;-92
2022/08/11 06:34:28;;;;;;;2.53;1.40;;;;;;;;;;2046388;29;20510;-92
2022/08/11 06:35:37;;;;;;;1.38;1.23;;;;;;;;;;2030640;29;20052;-92
2022/08/11 06:36:47;;;;;;;1.17;0.98;;;;;;;;;;2042512;29;20518;-93
2022/08/11 06:38:08;;;;;;;2.38;1.27;;;;;;;;;;2040209;29;20042;-93
2022/08/11 06:39:22;;;;;;;2.30;1.08;;;;;;;;;;2042204;29;20127;-93
2022/08/11 06:40:32;;;;;;;2.88;1.33;;;;;;;;;;2037989;29;20095;-93
2022/08/11 06:42:04;;;;;;;3.17;1.50;;;;;;;;;;2033868;29;20039;-93
2022/08/11 06:43:32;;;;;;;2.90;1.30;;;;;;;;;;2031023;29;20245;-92
2022/08/11 06:44:41;;;;;;;2.10;1.40;;;;;;;;;;2025942;29;20048;-92
2022/08/11 06:45:50;;;;;;;1.98;1.40;;;;;;;;;;2027840;29;20051;-93
2022/08/11 06:46:54;;;;;;;2.15;1.30;;;;;;;;;;2033371;29;20063;-94
2022/08/11 06:47:59;;;;;;;2.85;1.77;;;;;;;;;;2040810;29;20586;-92
2022/08/11 06:49:01;;;;;;;1.85;1.25;;;;;;;;;;2040213;29;20035;-93
2022/08/11 06:51:26;;;;;;;1.90;1.50;;;;;;;;;;2043553;29;20501;-93
2022/08/11 06:52:35;;;;;;;2.63;1.30;;;;;;;;;;2048936;29;20046;-94
2022/08/11 06:53:43;;;;;;;2.15;1.30;;;;;;;;;;2040238;29;20027;-95
2022/08/11 06:55:03;;;;;;;1.35;1.20;;;;;;;;;;2033600;29;20064;-91
2022/08/11 07:01:35;;;;;;;;;;;;;;;;;;2049451;29;20438;-92
2022/08/11 07:02:51;;;;;;;1.27;1.17;;;;;;;;;;1699353;29;9999826;-91
2022/08/11 07:03:59;;;;;;;1.20;0.95;;;;;;;;;;2042315;29;20091;-93
2022/08/11 07:05:46;;;;;;;1.38;1.17;;;;;;;;;;2048568;29;20027;-92
2022/08/11 07:16:40;;;;;;;1.55;1.30;;;;;;;;;;2031806;29;20036;-92
2022/08/11 07:17:48;;;;;;;2.25;1.33;;;;;;;;;;2039678;29;20419;-92
2022/08/11 07:28:55;;;;;;;1.17;1.08;;;;;;;;;;2057198;28;20034;-91
2022/08/11 07:29:56;;;;;;;1.27;1.17;;;;;;;;;;2047173;29;20035;-92
2022/08/11 07:31:03;;;;;;;0.98;0.90;;;;;;;;;;2038967;29;20028;-92
2022/08/11 07:32:25;;;;;;;1.88;1.15;;;;;;;;;;2040416;29;20032;-91
2022/08/11 07:33:39;;;;;;;1.30;1.20;;;;;;;;;;2042063;29;20118;-92
2022/08/11 07:34:48;;;;;;;1.45;1.00;;;;;;;;;;2048997;28;20516;-93
2022/08/11 07:35:54;;;;;;;1.10;1.00;;;;;;;;;;2047164;29;20027;-92
2022/08/11 07:36:57;;;;;;;3.42;1.20;;;;;;;;;;2050952;28;20070;-91
2022/08/11 07:38:02;;;;;;;1.10;1.00;;;;;;;;;;2047017;29;20031;-92
2022/08/11 07:39:03;;;;;;;1.13;1.00;;;;;;;;;;2039728;29;20070;-91
2022/08/11 07:40:04;;;;;;;1.20;1.10;;;;;;;;;;2046676;29;20027;-91
2022/08/11 07:41:04;;;;;;;1.92;1.27;;;;;;;;;;2047204;29;20427;-92
2022/08/11 07:42:08;;;;;;;1.63;1.23;;;;;;;;;;2043346;29;20031;-93
2022/08/11 07:43:11;;;;;;;2.55;1.40;;;;;;;;;;2050239;28;20039;-92
2022/08/11 07:44:15;;;;;;;1.55;1.00;;;;;;;;;;2052770;28;20102;-91
2022/08/11 07:53:21;;;;;;;3.03;1.40;;;;;;;;;;2050479;29;20027;-91
2022/08/11 07:54:23;;;;;;;1.17;1.05;;;;;;;;;;2051055;29;20027;-91
2022/08/11 07:55:53;;;;;;;3.05;1.40;;;;;;;;;;2042224;29;20039;-92
2022/08/11 07:56:58;;;;;;;1.98;1.30;;;;;;;;;;2028423;29;20558;-93
2022/08/11 08:18:36;;;;;;;1.33;1.20;;;;;;;;;;2048749;29;20031;-92
2022/08/11 08:19:37;;;;;;;1.40;1.02;;;;;;;;;;2040708;29;20027;-92
2022/08/11 08:20:49;;;;;;;1.17;1.07;;;;;;;;;;1693841;29;10001876;-93
2022/08/11 08:21:49;;;;;;;1.48;1.38;;;;;;;;;;2040825;29;20031;-92
2022/08/11 08:22:55;;;;;;;1.20;1.10;;;;;;;;;;2040382;29;20490;-92
2022/08/11 08:23:57;;;;;;;1.48;1.35;;;;;;;;;;2041488;29;20043;-92
2022/08/11 08:24:58;;;;;;;1.55;1.45;;;;;;;;;;2048403;29;20035;-92
2022/08/11 08:26:57;;;;;;;1.90;1.23;;;;;;;;;;2040488;29;20039;-92
2022/08/11 08:27:25;;;;;;;2.08;1.10;;;;;;;;;;2043845;29;20403;-94
2022/08/11 08:28:27;;;;;;;1.20;1.10;;;;;;;;;;2050875;28;20121;-93
2022/08/11 08:30:54;;;;;;;0.90;0.82;;;;;;;;;;2057824;28;20474;-92
2022/08/11 08:31:55;;;;;;;2.80;1.88;;;;;;;;;;2056837;28;20470;-92
2022/08/11 08:32:57;;;;;;;2.22;1.10;;;;;;;;;;2056971;28;20030;-92
2022/08/11 08:33:58;;;;;;;1.20;1.08;;;;;;;;;;2057624;28;20411;-92
2022/08/11 08:34:59;;;;;;;1.20;1.10;;;;;;;;;;1704964;28;10270013;-93
2022/08/11 08:36:10;;;;;;;1.10;1.00;;;;;;;;;;2056688;28;20046;-92
2022/08/11 08:37:12;;;;;;;1.23;0.82;;;;;;;;;;2049076;29;20041;-92
2022/08/11 08:38:13;;;;;;;1.33;1.20;;;;;;;;;;2041428;29;20035;-92
2022/08/11 08:39:15;;;;;;;2.05;1.50;;;;;;;;;;2041157;29;20051;-94
2022/08/11 08:40:17;;;;;;;1.30;1.05;;;;;;;;;;2041641;29;20119;-93
2022/08/11 08:41:28;;;;;;;1.60;1.15;;;;;;;;;;2043762;28;20110;-93
2022/08/11 08:42:37;;;;;;;2.03;1.10;;;;;;;;;;2066306;28;20431;-95
2022/08/11 08:43:39;;;;;;;1.27;1.17;;;;;;;;;;2065118;28;20073;-92
2022/08/11 08:44:43;;;;;;;1.77;1.15;;;;;;;;;;2064990;28;20030;-93
2022/08/11 08:45:44;;;;;;;1.20;1.10;;;;;;;;;;2073698;28;20022;-94
2022/08/11 08:46:50;;;;;;;2.10;1.05;;;;;;;;;;2064839;28;20105;-93
2022/08/11 08:48:00;;;;;;;2.22;1.10;;;;;;;;;;2065608;28;20062;-92
2022/08/11 08:49:02;;;;;;;1.60;1.10;;;;;;;;;;2064848;28;20139;-93
2022/08/11 08:50:08;;;;;;;1.10;1.00;;;;;;;;;;2064985;28;20065;-92
2022/08/11 08:52:39;;;;;;;1.58;1.00;;;;;;;;;;2073505;28;20037;-92
2022/08/11 08:53:48;;;;;;;1.40;1.17;;;;;;;;;;2066981;28;20106;-92
2022/08/11 08:54:55;;;;;;;1.30;1.20;;;;;;;;;;2067648;28;20031;-93
2022/08/11 08:55:58;;;;;;;2.25;0.90;;;;;;;;;;2064231;28;20038;-94
2022/08/11 08:57:03;;;;;;;1.55;1.00;;;;;;;;;;2056380;28;20023;-92
2022/08/11 08:58:04;;;;;;;1.38;1.08;;;;;;;;;;2057519;28;20031;-93
2022/08/11 08:59:07;;;;;;;1.30;1.13;;;;;;;;;;2064485;28;20061;-94
2022/08/11 09:00:08;;;;;;;1.05;0.95;;;;;;;;;;2073419;28;20044;-94
2022/08/11 09:01:10;;;;;;;1.48;0.90;;;;;;;;;;2064919;28;20030;-94
2022/08/11 09:02:11;;;;;;;1.95;1.00;;;;;;;;;;2056997;28;20023;-92
2022/08/11 09:03:13;;;;;;;1.30;1.20;;;;;;;;;;2056708;28;20608;-93
2022/08/11 09:04:14;;;;;;;1.52;1.25;;;;;;;;;;1701022;28;10370141;-92
2022/08/11 09:05:16;;;;;;;1.88;1.02;;;;;;;;;;2056562;28;20035;-92
2022/08/11 09:06:18;;;;;;;1.17;1.08;;;;;;;;;;2056760;28;20066;-93
2022/08/11 09:07:22;;;;;;;1.20;0.95;;;;;;;;;;2064827;28;20030;-93
2022/08/11 09:08:27;;;;;;;1.55;1.27;;;;;;;;;;2064655;28;20129;-94
2022/08/11 09:09:28;;;;;;;1.38;1.00;;;;;;;;;;2065323;28;20105;-93
2022/08/11 09:10:29;;;;;;;1.08;0.98;;;;;;;;;;2064559;28;20037;-93
2022/08/11 09:12:50;;;;;;;1.95;1.13;;;;;;;;;;2067530;28;20026;-93
2022/08/11 09:13:51;;;;;;;2.45;1.02;;;;;;;;;;2064458;28;20023;-94
2022/08/11 09:15:06;;;;;;;1.80;1.33;;;;;;;;;;2056526;28;20563;-93
2022/08/11 09:16:10;;;;;;;1.20;1.10;;;;;;;;;;2066853;28;20027;-93
2022/08/11 09:17:11;;;;;;;0.80;0.80;;;;;;;;;;2064517;28;20019;-94
2022/08/11 09:18:12;;;;;;;0.90;0.80;;;;;;;;;;2056193;28;20555;-92
2022/08/11 09:19:17;;;;;;;1.25;1.13;;;;;;;;;;2055958;28;20038;-91
2022/08/11 09:20:23;;;;;;;1.25;1.08;;;;;;;;;;2054673;28;20062;-92
2022/08/11 09:21:24;;;;;;;1.85;1.30;;;;;;;;;;1713807;28;10001157;-93
2022/08/11 09:27:55;;;;;;;2.90;1.20;;;;;;;;;;2057177;28;20039;-90
2022/08/11 09:28:57;;;;;;;1.98;1.30;;;;;;;;;;2048056;29;20027;-93
2022/08/11 09:29:57;;;;;;;1.05;0.98;;;;;;;;;;2048708;28;20043;-91
2022/08/11 09:31:00;;;;;;;1.20;1.10;;;;;;;;;;2057262;28;20493;-90
2022/08/11 09:32:01;;;;;;;1.67;1.33;;;;;;;;;;2059965;28;20042;-91
2022/08/11 09:33:04;;;;;;;1.20;1.10;;;;;;;;;;2057427;28;20840;-91
2022/08/11 09:34:05;;;;;;;2.28;1.20;;;;;;;;;;2048557;29;20031;-92
2022/08/11 09:35:06;;;;;;;1.95;1.10;;;;;;;;;;2041023;29;20444;-93
2022/08/11 09:40:32;;;;;;;1.25;1.15;;;;;;;;;;2058106;28;20031;-92
2022/08/11 09:41:38;;;;;;;1.17;1.08;;;;;;;;;;2059979;28;20018;-91
2022/08/11 09:45:19;;;;;;;2.05;0.93;;;;;;;;;;2059971;28;20038;-91
2022/08/11 09:46:26;;;;;;;1.27;1.17;;;;;;;;;;2051188;28;20446;-92
2022/08/11 09:47:29;;;;;;;1.02;1.00;;;;;;;;;;2053570;28;20462;-92